Time;durP1;ratioP1;P1;durP2;ratioP2;P2;SDS_P1;SDS_P2;PMS_P1;PMS_P2;Temp;Humidity;BMP_temperature;BMP_pressure;BME280_temperature;BME280_humidity;BME280_pressure;Samples;Min_cycle;Max_cycle;Signal;HPM_P1;HPM_P2
2021/12/31 00:05:04;;;;;;;16.25;11.20;;;4.20;86.90;;;;;;10807934;33;20388;-73
2021/12/31 00:11:06;;;;;;;12.85;9.57;;;4.10;87.00;;;;;;10821742;33;20042;-73
2021/12/31 00:17:08;;;;;;;11.00;8.02;;;4.10;87.10;;;;;;10824680;33;20381;-73
2021/12/31 00:23:13;;;;;;;14.70;7.30;;;4.10;87.20;;;;;;10811501;33;20047;-73
2021/12/31 00:29:16;;;;;;;11.75;7.22;;;4.20;87.20;;;;;;10827924;32;20012;-73
2021/12/31 00:35:19;;;;;;;17.60;6.95;;;4.20;87.20;;;;;;10828442;33;20380;-74
2021/12/31 00:41:21;;;;;;;11.55;8.25;;;4.20;87.00;;;;;;10830840;32;20396;-73
2021/12/31 00:47:23;;;;;;;11.93;8.30;;;4.10;87.00;;;;;;10830682;33;20047;-74
2021/12/31 00:53:36;;;;;;;10.20;7.15;;;4.20;87.10;;;;;;10830898;33;20380;-73
2021/12/31 01:00:14;;;;;;;12.95;7.28;;;4.10;87.00;;;;;;10754077;33;20055;-74
2021/12/31 01:06:16;;;;;;;58.83;16.62;;;4.10;87.00;;;;;;10749027;33;20021;-74
2021/12/31 01:12:19;;;;;;;9.43;6.82;;;4.10;87.00;;;;;;10753547;33;20370;-74
2021/12/31 01:18:27;;;;;;;6.72;4.68;;;4.00;87.10;;;;;;10819734;33;20020;-73
2021/12/31 01:24:30;;;;;;;8.27;5.37;;;4.10;87.10;;;;;;10829027;33;20061;-74
2021/12/31 01:30:33;;;;;;;11.90;7.45;;;4.20;87.10;;;;;;10829446;33;20419;-74
2021/12/31 01:36:35;;;;;;;11.27;8.15;;;4.20;87.00;;;;;;10829138;33;20054;-74
2021/12/31 01:42:37;;;;;;;8.18;5.43;;;4.10;87.00;;;;;;10297417;32;17090821;-74
2021/12/31 01:54:58;;;;;;;16.12;9.45;;;4.00;86.90;;;;;;10752338;33;20063;-73
2021/12/31 02:01:06;;;;;;;8.02;5.07;;;3.90;86.90;;;;;;10751548;33;20353;-73
2021/12/31 02:07:08;;;;;;;6.80;3.83;;;3.90;87.00;;;;;;10752496;33;20040;-73
2021/12/31 02:13:13;;;;;;;9.20;6.10;;;4.00;87.00;;;;;;10787470;33;20389;-73
2021/12/31 02:19:26;;;;;;;8.35;5.07;;;3.90;87.00;;;;;;10791165;33;20028;-73
2021/12/31 02:25:28;;;;;;;8.38;5.20;;;4.00;87.00;;;;;;10791238;33;20056;-73
2021/12/31 02:31:31;;;;;;;8.90;6.15;;;4.10;87.00;;;;;;10791025;33;20521;-73
2021/12/31 02:37:33;;;;;;;9.20;6.35;;;4.10;87.00;;;;;;10777517;33;20028;-73
2021/12/31 02:43:35;;;;;;;8.48;5.28;;;4.10;86.90;;;;;;10790111;33;20101;-73
2021/12/31 02:49:40;;;;;;;11.35;4.82;;;4.00;86.90;;;;;;10789819;33;20017;-73
2021/12/31 02:55:44;;;;;;;9.50;6.53;;;4.10;87.00;;;;;;10789161;33;20040;-73
2021/12/31 03:01:47;;;;;;;5.28;3.97;;;4.10;87.00;;;;;;10789936;33;20024;-73
2021/12/31 03:07:50;;;;;;;20.50;13.07;;;4.10;86.90;;;;;;10789891;33;20031;-73
2021/12/31 03:13:54;;;;;;;15.48;7.05;;;4.00;86.90;;;;;;10776488;33;20059;-73
2021/12/31 03:20:08;;;;;;;13.82;7.22;;;4.00;86.90;;;;;;10789548;33;20314;-73
2021/12/31 03:26:10;;;;;;;7.47;4.70;;;4.00;86.90;;;;;;10776245;33;20051;-73
2021/12/31 03:32:12;;;;;;;10.75;7.47;;;4.00;86.90;;;;;;10775750;33;20021;-73
2021/12/31 03:38:14;;;;;;;7.68;5.62;;;4.00;87.00;;;;;;10789155;33;20055;-74
2021/12/31 03:44:17;;;;;;;7.25;5.22;;;4.00;86.90;;;;;;10788758;33;20021;-73
2021/12/31 03:50:20;;;;;;;9.32;5.62;;;4.10;87.00;;;;;;10788714;33;20364;-74
2021/12/31 03:56:24;;;;;;;10.60;6.25;;;4.10;87.00;;;;;;10786399;33;20442;-73
2021/12/31 04:02:26;;;;;;;8.48;5.93;;;4.00;86.80;;;;;;10787453;33;20028;-73
2021/12/31 04:08:28;;;;;;;7.85;4.70;;;4.00;86.90;;;;;;10787510;33;20094;-73
2021/12/31 04:14:30;;;;;;;11.02;5.90;;;4.00;87.00;;;;;;10788159;33;20049;-74
2021/12/31 04:20:42;;;;;;;14.50;8.00;;;4.00;87.00;;;;;;10788082;33;20020;-74
2021/12/31 04:26:44;;;;;;;10.32;7.05;;;4.10;87.10;;;;;;10787860;33;20025;-74
2021/12/31 04:32:46;;;;;;;10.45;6.75;;;4.20;86.90;;;;;;10787809;33;20047;-74
2021/12/31 04:38:48;;;;;;;9.30;5.97;;;4.20;86.90;;;;;;10787474;33;20028;-74
2021/12/31 04:44:50;;;;;;;11.57;6.00;;;4.20;86.90;;;;;;10783435;33;20024;-74
2021/12/31 04:50:52;;;;;;;8.90;6.05;;;4.10;87.00;;;;;;10774210;33;20298;-74
2021/12/31 04:56:56;;;;;;;8.63;4.85;;;4.00;87.00;;;;;;10786967;33;20101;-74
2021/12/31 05:03:06;;;;;;;45.17;12.02;;;3.90;86.90;;;;;;10786899;33;20027;-74
2021/12/31 05:09:08;;;;;;;;;;;3.90;86.90;;;;;;10787110;33;20051;-74
2021/12/31 05:15:10;;;;;;;16.05;9.00;;;3.80;86.90;;;;;;10790492;33;19950;-74
2021/12/31 05:21:12;;;;;;;12.40;7.80;;;3.60;86.90;;;;;;10792875;33;20016;-73
2021/12/31 05:27:14;;;;;;;10.45;6.97;;;3.60;87.00;;;;;;10792631;33;20028;-74
2021/12/31 05:33:16;;;;;;;10.45;6.55;;;3.60;87.10;;;;;;10792462;33;20384;-74
2021/12/31 05:39:18;;;;;;;10.07;6.50;;;3.70;87.10;;;;;;10792252;33;20032;-72
2021/12/31 05:45:22;;;;;;;10.15;7.47;;;3.70;86.90;;;;;;10792066;33;20310;-72
2021/12/31 05:51:27;;;;;;;13.55;9.55;;;3.70;86.90;;;;;;10792037;33;20016;-72
2021/12/31 05:57:29;;;;;;;13.75;7.95;;;3.60;86.70;;;;;;10778384;33;20050;-72
2021/12/31 06:03:31;;;;;;;13.10;9.30;;;3.40;86.90;;;;;;10791621;33;20067;-71
2021/12/31 06:09:34;;;;;;;14.18;7.12;;;3.40;86.90;;;;;;10791796;33;20328;-71
2021/12/31 06:15:36;;;;;;;8.93;5.10;;;3.30;86.90;;;;;;10791319;33;20051;-72
2021/12/31 06:21:40;;;;;;;13.95;6.65;;;3.30;86.90;;;;;;10791256;33;20008;-72
2021/12/31 06:27:48;;;;;;;9.77;5.93;;;3.20;86.90;;;;;;10787171;33;20020;-72
2021/12/31 06:33:50;;;;;;;6.82;4.32;;;3.20;87.00;;;;;;10786913;33;20066;-72
2021/12/31 06:39:53;;;;;;;11.95;7.50;;;3.20;87.00;;;;;;10790323;33;20028;-72
2021/12/31 06:45:55;;;;;;;7.82;5.20;;;3.20;87.00;;;;;;10786225;33;20074;-72
2021/12/31 06:51:57;;;;;;;9.02;5.57;;;3.30;86.90;;;;;;10790205;33;20051;-72
2021/12/31 06:57:59;;;;;;;8.30;4.45;;;3.30;87.00;;;;;;10790114;33;20058;-72
2021/12/31 07:04:01;;;;;;;51.17;10.00;;;3.20;86.90;;;;;;10789957;33;20051;-72
2021/12/31 07:10:06;;;;;;;16.90;11.70;;;3.20;86.90;;;;;;10789692;33;20027;-72
2021/12/31 07:16:08;;;;;;;16.77;8.75;;;3.20;87.00;;;;;;10789474;33;20028;-72
2021/12/31 07:22:10;;;;;;;32.03;11.40;;;3.20;86.90;;;;;;10789302;33;20016;-72
2021/12/31 07:28:14;;;;;;;13.90;7.93;;;3.20;86.90;;;;;;10789226;33;20397;-72
2021/12/31 07:34:16;;;;;;;8.30;5.47;;;3.20;86.90;;;;;;10785582;33;20086;-72
2021/12/31 07:40:39;;;;;;;6.87;5.03;;;3.20;87.00;;;;;;10787931;33;20043;-72
2021/12/31 07:46:43;;;;;;;17.35;9.20;;;3.20;87.00;;;;;;10788744;33;20039;-72
2021/12/31 07:52:45;;;;;;;9.18;6.35;;;3.30;86.90;;;;;;10788356;33;20055;-72
2021/12/31 07:58:47;;;;;;;10.20;7.55;;;3.20;86.80;;;;;;10788222;33;20020;-72
2021/12/31 08:04:49;;;;;;;12.55;5.93;;;3.30;87.00;;;;;;10788276;33;20020;-74
2021/12/31 08:10:52;;;;;;;10.27;8.23;;;3.50;87.00;;;;;;10788525;33;20017;-74
2021/12/31 08:16:54;;;;;;;12.80;9.48;;;3.60;86.90;;;;;;10787964;33;20420;-74
2021/12/31 08:23:09;;;;;;;18.15;10.77;;;3.40;86.80;;;;;;10767366;33;20306;-74
2021/12/31 08:29:12;;;;;;;17.67;10.30;;;3.40;86.90;;;;;;10748179;33;20024;-73
2021/12/31 08:35:14;;;;;;;35.80;12.57;;;3.40;87.00;;;;;;10750787;33;20044;-74
2021/12/31 08:41:16;;;;;;;9.55;6.68;;;3.40;87.00;;;;;;10857342;32;20023;-73
2021/12/31 08:47:18;;;;;;;12.77;8.82;;;3.50;87.00;;;;;;10973845;32;20022;-73
2021/12/31 08:53:20;;;;;;;20.00;11.57;;;3.50;86.90;;;;;;10890134;32;20336;-73
2021/12/31 08:59:50;;;;;;;15.30;11.12;;;3.60;87.00;;;;;;10756776;33;20431;-74
2021/12/31 09:05:52;;;;;;;9.82;7.00;;;3.70;86.80;;;;;;10739637;33;20052;-73
2021/12/31 09:11:54;;;;;;;39.40;11.90;;;3.70;86.80;;;;;;10756639;33;20332;-72
2021/12/31 09:17:56;;;;;;;11.70;8.70;;;3.80;86.80;;;;;;10756405;33;20028;-72
2021/12/31 09:23:58;;;;;;;20.90;8.63;;;3.80;86.90;;;;;;10756229;33;20411;-72
2021/12/31 09:30:00;;;;;;;16.85;11.15;;;3.90;86.90;;;;;;10755829;33;20376;-72
2021/12/31 09:36:03;;;;;;;11.27;9.73;;;4.10;86.80;;;;;;10792240;33;20028;-71
2021/12/31 09:42:07;;;;;;;18.08;10.95;;;4.10;86.70;;;;;;10800953;27;20035;-71
2021/12/31 09:48:20;;;;;;;17.55;11.45;;;4.10;86.70;;;;;;10822664;33;20107;-71
2021/12/31 09:54:22;;;;;;;32.05;17.30;;;4.10;86.70;;;;;;10823556;33;20055;-71
2021/12/31 10:00:26;;;;;;;14.35;12.25;;;4.20;86.70;;;;;;10813152;32;20036;-71
2021/12/31 10:07:08;;;;;;;18.87;16.42;;;4.20;86.70;;;;;;10788320;33;20513;-71
2021/12/31 10:13:35;;;;;;;15.90;10.75;;;4.30;86.80;;;;;;10827514;33;20032;-71
2021/12/31 10:19:56;;;;;;;19.00;13.95;;;4.40;86.80;;;;;;10828032;33;20012;-71
2021/12/31 10:26:12;;;;;;;16.12;11.68;;;4.40;86.70;;;;;;10827278;33;20027;-71
2021/12/31 10:32:16;;;;;;;16.10;9.38;;;4.50;86.90;;;;;;10827626;33;20019;-71
2021/12/31 10:38:31;;;;;;;17.70;10.88;;;4.70;86.80;;;;;;10826810;33;20040;-71
2021/12/31 10:44:53;;;;;;;17.58;13.45;;;4.70;86.70;;;;;;10826865;33;20360;-73
2021/12/31 10:50:55;;;;;;;18.40;12.90;;;4.80;86.70;;;;;;10827095;33;20028;-73
2021/12/31 10:57:00;;;;;;;19.85;14.23;;;4.90;86.80;;;;;;10818172;33;20058;-73
2021/12/31 11:03:04;;;;;;;22.40;16.65;;;5.10;86.70;;;;;;10799316;33;20029;-73
2021/12/31 11:09:07;;;;;;;22.40;16.23;;;5.20;86.70;;;;;;10791297;33;20060;-73
2021/12/31 11:15:38;;;;;;;28.15;21.00;;;5.30;86.70;;;;;;10789445;33;20352;-73
2021/12/31 11:21:41;;;;;;;20.17;14.68;;;5.40;86.50;;;;;;10789438;33;20320;-73
2021/12/31 11:27:45;;;;;;;42.72;23.05;;;5.30;86.50;;;;;;10789347;33;20035;-73
2021/12/31 11:34:10;;;;;;;22.25;18.83;;;5.30;86.70;;;;;;10788983;33;20345;-73
2021/12/31 11:41:13;;;;;;;23.45;16.62;;;5.30;86.80;;;;;;10791092;32;20051;-73
2021/12/31 11:47:27;;;;;;;29.67;22.85;;;5.40;86.90;;;;;;10681366;33;20056;-73
2021/12/31 11:54:04;;;;;;;24.40;19.98;;;5.50;86.90;;;;;;10677473;33;20073;-73
2021/12/31 12:00:26;;;;;;;36.75;23.98;;;5.70;86.90;;;;;;10670852;33;20065;-73
2021/12/31 12:07:05;;;;;;;32.63;24.58;;;6.00;86.70;;;;;;10680514;33;20028;-73
2021/12/31 12:13:25;;;;;;;24.40;19.90;;;6.20;86.50;;;;;;10692470;33;20058;-73
2021/12/31 12:19:52;;;;;;;37.25;27.55;;;6.40;86.50;;;;;;10821140;32;20023;-73
2021/12/31 12:25:54;;;;;;;31.90;26.87;;;6.60;86.40;;;;;;10787124;33;20024;-73
2021/12/31 12:32:09;;;;;;;34.42;27.37;;;6.70;86.30;;;;;;10787595;33;20040;-73
2021/12/31 12:38:38;;;;;;;27.40;20.73;;;6.90;86.30;;;;;;10787350;33;20329;-73
2021/12/31 12:44:56;;;;;;;58.78;43.17;;;7.10;86.30;;;;;;10774315;33;20380;-73
2021/12/31 12:50:59;;;;;;;36.65;27.27;;;7.20;86.20;;;;;;10787251;33;20388;-73
2021/12/31 12:57:03;;;;;;;30.80;23.62;;;7.20;86.40;;;;;;10783320;33;20020;-73
2021/12/31 13:03:10;;;;;;;50.58;30.17;;;7.20;86.50;;;;;;10786984;33;20055;-73
2021/12/31 13:09:18;;;;;;;39.88;32.67;;;7.30;86.40;;;;;;10774132;33;20016;-73
2021/12/31 13:15:21;;;;;;;38.90;31.42;;;7.40;86.40;;;;;;10785734;33;20024;-73
2021/12/31 13:21:24;;;;;;;39.05;32.08;;;7.50;86.30;;;;;;10786287;33;20047;-73
2021/12/31 13:27:31;;;;;;;38.28;32.00;;;7.60;86.20;;;;;;10786063;33;20429;-71
2021/12/31 13:33:40;;;;;;;38.15;28.85;;;7.70;86.10;;;;;;10773722;33;20012;-71
2021/12/31 13:39:43;;;;;;;36.80;26.70;;;7.80;86.00;;;;;;10791897;33;20028;-71
2021/12/31 13:45:46;;;;;;;31.42;26.12;;;7.90;86.10;;;;;;10791849;33;20050;-71
2021/12/31 13:51:48;;;;;;;40.38;32.85;;;8.00;86.00;;;;;;10791155;33;20031;-71
2021/12/31 13:57:56;;;;;;;43.33;33.15;;;8.20;85.90;;;;;;10791752;33;20426;-71
2021/12/31 14:04:11;;;;;;;33.05;26.20;;;8.20;85.70;;;;;;10791534;33;20070;-71
2021/12/31 14:10:31;;;;;;;37.42;30.90;;;8.10;85.80;;;;;;10791358;33;20047;-71
2021/12/31 14:16:34;;;;;;;34.90;26.48;;;7.90;86.00;;;;;;10791072;33;20032;-71
2021/12/31 14:22:36;;;;;;;35.05;25.60;;;7.70;86.10;;;;;;10775508;33;20044;-71
2021/12/31 14:28:39;;;;;;;32.50;24.35;;;7.50;86.40;;;;;;10778021;33;20032;-71
2021/12/31 14:34:41;;;;;;;28.87;23.08;;;7.20;86.70;;;;;;10790639;33;20031;-71
2021/12/31 14:40:49;;;;;;;30.00;21.15;;;7.10;86.90;;;;;;10790419;33;20016;-71
2021/12/31 14:46:53;;;;;;;30.50;22.50;;;6.90;87.10;;;;;;10789018;33;20043;-70
2021/12/31 14:52:56;;;;;;;30.23;20.65;;;6.80;87.20;;;;;;10789119;33;20016;-71
2021/12/31 14:58:58;;;;;;;26.77;19.52;;;6.70;87.30;;;;;;10789641;33;20439;-71
2021/12/31 15:05:01;;;;;;;44.95;33.92;;;6.70;87.40;;;;;;10789683;33;20016;-70
2021/12/31 15:11:03;;;;;;;39.22;30.62;;;6.60;87.40;;;;;;10776662;33;20356;-73
2021/12/31 15:17:07;;;;;;;27.52;20.17;;;6.60;87.40;;;;;;10789566;33;20032;-73
2021/12/31 15:23:08;;;;;;;30.30;23.00;;;6.50;87.40;;;;;;10788775;33;20051;-73
2021/12/31 15:29:10;;;;;;;75.45;41.22;;;6.50;87.40;;;;;;10789092;33;20331;-73
2021/12/31 15:35:12;;;;;;;48.00;37.17;;;6.40;87.40;;;;;;10785371;33;20486;-73
2021/12/31 15:41:15;;;;;;;50.85;31.87;;;6.20;87.50;;;;;;10788937;33;20016;-73
2021/12/31 15:47:17;;;;;;;32.50;21.62;;;6.20;87.60;;;;;;10788903;33;20063;-73
2021/12/31 15:53:19;;;;;;;38.13;25.08;;;6.20;87.70;;;;;;10788779;33;20021;-73
2021/12/31 15:59:21;;;;;;;30.67;24.58;;;6.20;87.70;;;;;;10788307;33;20059;-74
2021/12/31 16:05:23;;;;;;;41.00;26.87;;;6.10;87.60;;;;;;10788309;33;20020;-74
2021/12/31 16:11:26;;;;;;;24.60;19.48;;;6.10;87.60;;;;;;10788158;33;20043;-71
2021/12/31 16:17:27;;;;;;;29.77;18.23;;;6.10;87.60;;;;;;10788030;33;20427;-71
2021/12/31 16:23:30;;;;;;;26.42;20.10;;;6.00;87.60;;;;;;10787813;33;20023;-71
2021/12/31 16:29:57;;;;;;;26.58;17.42;;;6.00;87.60;;;;;;10787710;33;20320;-71
2021/12/31 16:36:00;;;;;;;26.08;20.20;;;5.90;87.50;;;;;;10787548;33;20037;-71
2021/12/31 16:42:04;;;;;;;105.53;43.83;;;5.80;87.50;;;;;;10787459;33;20415;-71
2021/12/31 16:48:07;;;;;;;25.98;18.70;;;5.80;87.60;;;;;;10787298;33;20388;-71
2021/12/31 16:54:09;;;;;;;43.80;31.42;;;5.70;87.50;;;;;;10786883;33;20047;-71
2021/12/31 17:00:13;;;;;;;101.72;37.00;;;5.70;87.60;;;;;;10787154;33;20032;-71
2021/12/31 17:06:16;;;;;;;20.23;15.13;;;5.70;87.50;;;;;;10787069;33;20024;-71
2021/12/31 17:12:18;;;;;;;19.87;13.55;;;5.60;87.50;;;;;;10788334;33;20025;-71
2021/12/31 17:18:20;;;;;;;20.75;14.48;;;5.60;87.50;;;;;;10788814;33;20028;-71
2021/12/31 17:24:22;;;;;;;27.75;19.83;;;5.60;87.50;;;;;;10792976;33;20044;-71
2021/12/31 17:30:24;;;;;;;32.50;23.85;;;5.50;87.50;;;;;;10779842;33;20047;-71
2021/12/31 17:36:27;;;;;;;42.65;29.42;;;5.50;87.50;;;;;;10792548;33;20458;-71
2021/12/31 17:42:31;;;;;;;23.87;18.83;;;5.30;87.40;;;;;;10804185;27;20039;-71
2021/12/31 17:48:34;;;;;;;36.33;24.45;;;5.30;87.50;;;;;;10829189;33;20016;-70
2021/12/31 17:54:36;;;;;;;27.55;19.25;;;5.30;87.50;;;;;;10828819;33;20364;-70
2021/12/31 18:00:39;;;;;;;66.35;28.45;;;5.30;87.50;;;;;;10828527;33;20027;-70
2021/12/31 18:06:41;;;;;;;31.60;21.98;;;5.30;87.40;;;;;;10828573;33;20344;-70
2021/12/31 18:12:45;;;;;;;28.38;17.48;;;5.20;87.40;;;;;;10828257;33;20051;-70
2021/12/31 18:18:47;;;;;;;18.77;15.00;;;5.20;87.50;;;;;;10828132;33;20059;-70
2021/12/31 18:24:49;;;;;;;23.55;17.30;;;5.20;87.40;;;;;;10827193;32;20004;-70
2021/12/31 18:30:51;;;;;;;29.20;20.70;;;5.20;87.40;;;;;;10827331;33;20042;-70
2021/12/31 18:36:53;;;;;;;20.73;15.15;;;5.20;87.40;;;;;;10827629;32;20023;-70
2021/12/31 18:42:55;;;;;;;22.40;15.15;;;5.10;87.40;;;;;;10824685;33;20046;-70
2021/12/31 18:49:04;;;;;;;27.13;20.37;;;5.10;87.40;;;;;;10827370;33;20359;-70
2021/12/31 18:55:06;;;;;;;32.60;18.73;;;5.10;87.40;;;;;;10827205;33;20340;-71
2021/12/31 19:01:08;;;;;;;25.23;18.33;;;5.10;87.40;;;;;;10826922;33;20125;-71
2021/12/31 19:07:10;;;;;;;37.15;25.92;;;5.20;87.40;;;;;;10814128;33;20032;-71
2021/12/31 19:13:12;;;;;;;34.03;20.65;;;5.20;87.30;;;;;;10826478;33;20036;-71
2021/12/31 19:19:14;;;;;;;28.27;19.92;;;5.10;87.30;;;;;;10826471;32;20050;-71
2021/12/31 19:25:16;;;;;;;23.48;16.73;;;5.10;87.30;;;;;;10813228;33;20020;-71
2021/12/31 19:31:18;;;;;;;64.57;21.95;;;5.10;87.40;;;;;;10825789;32;20046;-71
2021/12/31 19:37:20;;;;;;;46.17;29.55;;;5.10;87.30;;;;;;10825912;32;20035;-71
2021/12/31 19:43:25;;;;;;;48.67;30.25;;;5.00;87.20;;;;;;10825722;33;20400;-71
2021/12/31 19:49:27;;;;;;;38.22;22.10;;;4.90;87.30;;;;;;10824563;33;20055;-71
2021/12/31 19:55:29;;;;;;;26.83;17.77;;;4.90;87.30;;;;;;10825171;33;20055;-70
2021/12/31 20:01:32;;;;;;;21.17;16.23;;;4.90;87.30;;;;;;10825264;33;20050;-71
2021/12/31 20:07:34;;;;;;;30.55;16.58;;;5.00;87.30;;;;;;10824966;33;20016;-71
2021/12/31 20:13:39;;;;;;;58.97;25.65;;;5.00;87.20;;;;;;10809127;33;20028;-71
2021/12/31 20:19:48;;;;;;;24.85;18.55;;;4.90;87.10;;;;;;10824347;33;20343;-71
2021/12/31 20:25:51;;;;;;;53.33;25.50;;;4.80;87.20;;;;;;10820164;33;20071;-71
2021/12/31 20:31:54;;;;;;;17.30;13.02;;;4.90;87.30;;;;;;10787938;33;20344;-71
2021/12/31 20:38:01;;;;;;;13.75;10.15;;;4.90;87.30;;;;;;10787588;33;20047;-71
2021/12/31 20:44:04;;;;;;;14.90;11.02;;;4.80;87.30;;;;;;10788471;33;20016;-71
2021/12/31 20:50:09;;;;;;;27.42;20.50;;;4.90;87.30;;;;;;10789731;33;20043;-71
2021/12/31 20:56:39;;;;;;;17.23;13.23;;;4.90;87.20;;;;;;10793729;33;20051;-71
2021/12/31 21:02:41;;;;;;;15.25;11.88;;;4.90;87.20;;;;;;10793598;33;20025;-71
2021/12/31 21:08:43;;;;;;;20.58;16.30;;;4.90;87.30;;;;;;10793021;33;20051;-71
2021/12/31 21:14:45;;;;;;;32.55;21.08;;;4.90;87.20;;;;;;10793387;33;20043;-71
2021/12/31 21:20:47;;;;;;;21.42;15.00;;;4.90;87.20;;;;;;10789176;33;20056;-71
2021/12/31 21:26:50;;;;;;;20.60;14.35;;;4.90;87.20;;;;;;10792957;33;20035;-71
2021/12/31 21:32:57;;;;;;;26.33;18.80;;;4.80;87.10;;;;;;10792614;33;20313;-71
2021/12/31 21:38:59;;;;;;;15.10;12.25;;;4.70;87.10;;;;;;10792982;33;20051;-71
2021/12/31 21:45:05;;;;;;;20.00;14.38;;;4.70;87.20;;;;;;10779215;33;20050;-71
2021/12/31 21:51:07;;;;;;;13.35;9.82;;;4.70;87.20;;;;;;10792298;33;20040;-71
2021/12/31 21:57:36;;;;;;;13.55;10.07;;;4.60;87.20;;;;;;10788868;33;20025;-71
2021/12/31 22:03:41;;;;;;;12.52;10.18;;;4.60;87.20;;;;;;10779135;33;20032;-71
2021/12/31 22:09:44;;;;;;;18.42;13.35;;;4.60;87.20;;;;;;10791675;33;20023;-71
2021/12/31 22:15:46;;;;;;;23.10;17.52;;;4.60;87.20;;;;;;10791287;33;20302;-71
2021/12/31 22:21:48;;;;;;;15.35;13.15;;;4.60;87.20;;;;;;10791473;33;20028;-71
2021/12/31 22:27:50;;;;;;;18.58;14.32;;;4.70;87.20;;;;;;10791344;33;20042;-71
2021/12/31 22:33:52;;;;;;;23.77;17.50;;;4.70;87.10;;;;;;10788145;33;20393;-73
2021/12/31 22:39:54;;;;;;;32.53;23.38;;;4.80;87.10;;;;;;10790711;33;20321;-73
2021/12/31 22:45:56;;;;;;;40.67;27.33;;;4.70;87.10;;;;;;10786519;33;20024;-72
2021/12/31 22:51:58;;;;;;;23.52;19.30;;;4.70;87.20;;;;;;10790565;33;20074;-73
2021/12/31 22:58:00;;;;;;;53.55;29.25;;;4.70;87.30;;;;;;10787826;33;20050;-72
2021/12/31 23:04:03;;;;;;;23.48;19.27;;;4.70;87.30;;;;;;10777447;33;20341;-72
2021/12/31 23:10:06;;;;;;;23.75;18.90;;;4.60;87.30;;;;;;10788769;33;20043;-72
2021/12/31 23:16:10;;;;;;;37.28;27.42;;;4.60;87.40;;;;;;10776628;33;20067;-72
2021/12/31 23:22:12;;;;;;;56.58;27.27;;;4.60;87.30;;;;;;10789470;33;20016;-72
2021/12/31 23:28:14;;;;;;;53.53;31.37;;;4.60;87.10;;;;;;10789588;33;20441;-72
2021/12/31 23:34:17;;;;;;;27.30;20.80;;;4.40;87.10;;;;;;10789168;33;20051;-73
2021/12/31 23:40:20;;;;;;;40.22;31.75;;;4.40;87.40;;;;;;10789056;33;20019;-72
2021/12/31 23:46:22;;;;;;;30.80;25.37;;;4.40;87.40;;;;;;10788978;33;20028;-72
2021/12/31 23:52:24;;;;;;;52.90;35.13;;;4.40;87.30;;;;;;10786994;33;20066;-72
2021/12/31 23:58:26;;;;;;;21.98;16.30;;;4.40;87.50;;;;;;10784972;33;20098;-72
